sensor_id;sensor_type;location;lat;lon;timestamp;temperature;humidity
67817;DHT22;54614;47.576;7.524;2023-08-31T00:00:44;23.70;64.90
67817;DHT22;54614;47.576;7.524;2023-08-31T00:03:10;23.70;65.00
67817;DHT22;54614;47.576;7.524;2023-08-31T00:05:41;23.70;65.00
67817;DHT22;54614;47.576;7.524;2023-08-31T00:08:08;23.80;65.10
67817;DHT22;54614;47.576;7.524;2023-08-31T00:10:35;23.80;65.00
67817;DHT22;54614;47.576;7.524;2023-08-31T00:13:02;23.70;65.00
67817;DHT22;54614;47.576;7.524;2023-08-31T00:15:28;23.70;65.00
67817;DHT22;54614;47.576;7.524;2023-08-31T00:17:54;23.70;65.00
67817;DHT22;54614;47.576;7.524;2023-08-31T00:20:20;23.70;65.00
67817;DHT22;54614;47.576;7.524;2023-08-31T00:22:47;23.70;65.00
67817;DHT22;54614;47.576;7.524;2023-08-31T00:25:13;23.70;65.00
67817;DHT22;54614;47.576;7.524;2023-08-31T00:27:39;23.70;64.90
67817;DHT22;54614;47.576;7.524;2023-08-31T00:30:07;23.70;64.80
67817;DHT22;54614;47.576;7.524;2023-08-31T00:32:37;23.70;64.90
67817;DHT22;54614;47.576;7.524;2023-08-31T00:35:05;23.70;64.80
67817;DHT22;54614;47.576;7.524;2023-08-31T00:37:31;23.70;64.80
67817;DHT22;54614;47.576;7.524;2023-08-31T00:39:56;23.70;64.80
67817;DHT22;54614;47.576;7.524;2023-08-31T00:42:22;23.70;64.90
67817;DHT22;54614;47.576;7.524;2023-08-31T00:44:50;23.70;64.80
67817;DHT22;54614;47.576;7.524;2023-08-31T00:47:16;23.70;64.90
67817;DHT22;54614;47.576;7.524;2023-08-31T00:49:42;23.70;64.80
67817;DHT22;54614;47.576;7.524;2023-08-31T00:52:09;23.70;64.80
67817;DHT22;54614;47.576;7.524;2023-08-31T00:54:35;23.60;64.70
67817;DHT22;54614;47.576;7.524;2023-08-31T00:57:02;23.70;64.80
67817;DHT22;54614;47.576;7.524;2023-08-31T00:59:29;23.80;64.90
67817;DHT22;54614;47.576;7.524;2023-08-31T01:02:18;23.70;64.90
67817;DHT22;54614;47.576;7.524;2023-08-31T01:05:08;23.70;64.90
67817;DHT22;54614;47.576;7.524;2023-08-31T01:13:24;23.70;65.00
67817;DHT22;54614;47.576;7.524;2023-08-31T01:15:56;23.70;65.00
67817;DHT22;54614;47.576;7.524;2023-08-31T01:18:26;23.70;65.00
67817;DHT22;54614;47.576;7.524;2023-08-31T01:23:56;23.70;65.00
67817;DHT22;54614;47.576;7.524;2023-08-31T01:26:24;23.70;65.00
67817;DHT22;54614;47.576;7.524;2023-08-31T01:28:51;23.70;65.00
67817;DHT22;54614;47.576;7.524;2023-08-31T01:31:18;23.70;65.00
67817;DHT22;54614;47.576;7.524;2023-08-31T01:33:44;23.70;65.10
67817;DHT22;54614;47.576;7.524;2023-08-31T01:36:26;23.70;65.10
67817;DHT22;54614;47.576;7.524;2023-08-31T01:39:03;23.70;65.00
67817;DHT22;54614;47.576;7.524;2023-08-31T01:41:34;23.60;65.00
67817;DHT22;54614;47.576;7.524;2023-08-31T01:44:01;23.70;65.10
67817;DHT22;54614;47.576;7.524;2023-08-31T01:46:28;23.70;65.10
67817;DHT22;54614;47.576;7.524;2023-08-31T01:48:56;23.60;65.10
67817;DHT22;54614;47.576;7.524;2023-08-31T01:51:22;23.70;65.20
67817;DHT22;54614;47.576;7.524;2023-08-31T01:53:48;23.70;65.10
67817;DHT22;54614;47.576;7.524;2023-08-31T01:56:14;23.60;65.00
67817;DHT22;54614;47.576;7.524;2023-08-31T01:58:39;23.60;65.10
67817;DHT22;54614;47.576;7.524;2023-08-31T02:01:05;23.70;65.00
67817;DHT22;54614;47.576;7.524;2023-08-31T02:03:31;23.70;65.10
67817;DHT22;54614;47.576;7.524;2023-08-31T02:05:56;23.60;65.10
67817;DHT22;54614;47.576;7.524;2023-08-31T02:08:23;23.60;65.10
67817;DHT22;54614;47.576;7.524;2023-08-31T02:10:48;23.60;65.10
67817;DHT22;54614;47.576;7.524;2023-08-31T02:13:15;23.60;65.00
67817;DHT22;54614;47.576;7.524;2023-08-31T02:15:41;23.70;65.00
67817;DHT22;54614;47.576;7.524;2023-08-31T02:18:08;23.60;65.00
67817;DHT22;54614;47.576;7.524;2023-08-31T02:20:34;23.70;65.10
67817;DHT22;54614;47.576;7.524;2023-08-31T02:23:00;23.70;65.10
67817;DHT22;54614;47.576;7.524;2023-08-31T02:25:26;23.60;65.10
67817;DHT22;54614;47.576;7.524;2023-08-31T02:27:54;23.60;65.30
67817;DHT22;54614;47.576;7.524;2023-08-31T02:30:20;23.60;65.20
67817;DHT22;54614;47.576;7.524;2023-08-31T02:32:46;23.60;65.30
67817;DHT22;54614;47.576;7.524;2023-08-31T02:35:12;23.60;65.20
67817;DHT22;54614;47.576;7.524;2023-08-31T02:37:38;23.60;65.30
67817;DHT22;54614;47.576;7.524;2023-08-31T02:40:05;23.60;65.30
67817;DHT22;54614;47.576;7.524;2023-08-31T02:42:31;23.60;65.20
67817;DHT22;54614;47.576;7.524;2023-08-31T02:44:57;23.60;65.20
67817;DHT22;54614;47.576;7.524;2023-08-31T02:47:23;23.60;65.30
67817;DHT22;54614;47.576;7.524;2023-08-31T02:49:48;23.60;65.30
67817;DHT22;54614;47.576;7.524;2023-08-31T02:52:14;23.60;65.30
67817;DHT22;54614;47.576;7.524;2023-08-31T02:54:40;23.60;65.20
67817;DHT22;54614;47.576;7.524;2023-08-31T02:57:06;23.60;65.20
67817;DHT22;54614;47.576;7.524;2023-08-31T02:59:33;23.60;65.30
67817;DHT22;54614;47.576;7.524;2023-08-31T03:02:02;23.60;65.20
67817;DHT22;54614;47.576;7.524;2023-08-31T03:04:28;23.60;65.40
67817;DHT22;54614;47.576;7.524;2023-08-31T03:06:54;23.60;65.30
67817;DHT22;54614;47.576;7.524;2023-08-31T03:09:20;23.60;65.30
67817;DHT22;54614;47.576;7.524;2023-08-31T03:11:46;23.60;65.30
67817;DHT22;54614;47.576;7.524;2023-08-31T03:14:12;23.60;65.20
67817;DHT22;54614;47.576;7.524;2023-08-31T03:16:38;23.60;65.30
67817;DHT22;54614;47.576;7.524;2023-08-31T03:19:04;23.60;65.20
67817;DHT22;54614;47.576;7.524;2023-08-31T03:21:30;23.60;65.20
67817;DHT22;54614;47.576;7.524;2023-08-31T03:23:56;23.60;65.30
67817;DHT22;54614;47.576;7.524;2023-08-31T03:26:21;23.60;65.20
67817;DHT22;54614;47.576;7.524;2023-08-31T03:28:47;23.60;65.30
67817;DHT22;54614;47.576;7.524;2023-08-31T03:31:13;23.60;65.30
67817;DHT22;54614;47.576;7.524;2023-08-31T03:33:39;23.60;65.30
67817;DHT22;54614;47.576;7.524;2023-08-31T03:36:05;23.70;65.30
67817;DHT22;54614;47.576;7.524;2023-08-31T03:38:33;23.70;65.20
67817;DHT22;54614;47.576;7.524;2023-08-31T03:41:03;23.60;65.30
67817;DHT22;54614;47.576;7.524;2023-08-31T03:43:29;23.60;65.40
67817;DHT22;54614;47.576;7.524;2023-08-31T03:45:56;23.60;65.30
67817;DHT22;54614;47.576;7.524;2023-08-31T03:48:24;23.60;65.30
67817;DHT22;54614;47.576;7.524;2023-08-31T03:50:51;23.60;65.10
67817;DHT22;54614;47.576;7.524;2023-08-31T03:53:18;23.60;65.20
67817;DHT22;54614;47.576;7.524;2023-08-31T03:55:44;23.60;65.30
67817;DHT22;54614;47.576;7.524;2023-08-31T03:58:10;23.60;65.40
67817;DHT22;54614;47.576;7.524;2023-08-31T04:00:37;23.60;65.10
67817;DHT22;54614;47.576;7.524;2023-08-31T04:03:04;23.60;65.20
67817;DHT22;54614;47.576;7.524;2023-08-31T04:05:34;23.60;65.20
67817;DHT22;54614;47.576;7.524;2023-08-31T04:08:00;23.60;65.20
67817;DHT22;54614;47.576;7.524;2023-08-31T04:10:27;23.60;65.20
67817;DHT22;54614;47.576;7.524;2023-08-31T04:12:54;23.60;65.60
67817;DHT22;54614;47.576;7.524;2023-08-31T04:15:21;23.60;67.00
67817;DHT22;54614;47.576;7.524;2023-08-31T04:17:47;23.60;66.90
67817;DHT22;54614;47.576;7.524;2023-08-31T04:20:13;23.70;66.20
67817;DHT22;54614;47.576;7.524;2023-08-31T04:22:38;23.70;65.70
67817;DHT22;54614;47.576;7.524;2023-08-31T04:25:04;23.60;65.70
67817;DHT22;54614;47.576;7.524;2023-08-31T04:27:30;23.60;66.00
67817;DHT22;54614;47.576;7.524;2023-08-31T04:29:58;23.60;65.80
67817;DHT22;54614;47.576;7.524;2023-08-31T04:32:25;23.60;65.80
67817;DHT22;54614;47.576;7.524;2023-08-31T04:34:51;23.60;65.70
67817;DHT22;54614;47.576;7.524;2023-08-31T04:37:17;23.60;65.50
67817;DHT22;54614;47.576;7.524;2023-08-31T04:39:43;23.60;65.50
67817;DHT22;54614;47.576;7.524;2023-08-31T04:42:09;23.60;65.40
67817;DHT22;54614;47.576;7.524;2023-08-31T04:44:35;23.60;65.40
67817;DHT22;54614;47.576;7.524;2023-08-31T04:47:01;23.50;65.30
67817;DHT22;54614;47.576;7.524;2023-08-31T04:49:26;23.60;65.30
67817;DHT22;54614;47.576;7.524;2023-08-31T04:51:52;23.50;65.30
67817;DHT22;54614;47.576;7.524;2023-08-31T04:54:18;23.60;65.30
67817;DHT22;54614;47.576;7.524;2023-08-31T04:56:44;23.50;65.20
67817;DHT22;54614;47.576;7.524;2023-08-31T04:59:10;23.50;65.20
67817;DHT22;54614;47.576;7.524;2023-08-31T05:01:36;23.50;65.20
67817;DHT22;54614;47.576;7.524;2023-08-31T05:04:02;23.50;65.10
67817;DHT22;54614;47.576;7.524;2023-08-31T05:06:28;23.50;65.20
67817;DHT22;54614;47.576;7.524;2023-08-31T05:08:54;23.50;65.20
67817;DHT22;54614;47.576;7.524;2023-08-31T05:11:20;23.50;65.10
67817;DHT22;54614;47.576;7.524;2023-08-31T05:13:47;23.50;65.10
67817;DHT22;54614;47.576;7.524;2023-08-31T05:16:13;23.50;65.10
67817;DHT22;54614;47.576;7.524;2023-08-31T05:18:39;23.60;65.10
67817;DHT22;54614;47.576;7.524;2023-08-31T05:21:06;23.50;65.20
67817;DHT22;54614;47.576;7.524;2023-08-31T05:23:32;23.50;65.10
67817;DHT22;54614;47.576;7.524;2023-08-31T05:25:58;23.50;65.10
67817;DHT22;54614;47.576;7.524;2023-08-31T05:28:24;23.50;65.20
67817;DHT22;54614;47.576;7.524;2023-08-31T05:30:51;23.50;65.20
67817;DHT22;54614;47.576;7.524;2023-08-31T05:33:18;23.50;65.30
67817;DHT22;54614;47.576;7.524;2023-08-31T05:35:45;23.50;65.30
67817;DHT22;54614;47.576;7.524;2023-08-31T05:38:11;23.50;66.00
67817;DHT22;54614;47.576;7.524;2023-08-31T05:40:37;23.50;65.20
67817;DHT22;54614;47.576;7.524;2023-08-31T05:43:04;23.50;65.20
67817;DHT22;54614;47.576;7.524;2023-08-31T05:45:33;23.50;65.20
67817;DHT22;54614;47.576;7.524;2023-08-31T05:47:59;23.60;65.20
67817;DHT22;54614;47.576;7.524;2023-08-31T05:50:29;23.50;65.30
67817;DHT22;54614;47.576;7.524;2023-08-31T05:52:57;23.60;65.50
67817;DHT22;54614;47.576;7.524;2023-08-31T05:55:23;23.50;65.80
67817;DHT22;54614;47.576;7.524;2023-08-31T05:57:49;23.60;66.20
67817;DHT22;54614;47.576;7.524;2023-08-31T06:00:15;23.60;66.10
67817;DHT22;54614;47.576;7.524;2023-08-31T06:02:42;23.60;65.80
67817;DHT22;54614;47.576;7.524;2023-08-31T06:05:10;23.70;65.70
67817;DHT22;54614;47.576;7.524;2023-08-31T06:07:38;23.70;65.70
67817;DHT22;54614;47.576;7.524;2023-08-31T06:10:05;23.70;65.90
67817;DHT22;54614;47.576;7.524;2023-08-31T06:12:31;23.80;65.90
67817;DHT22;54614;47.576;7.524;2023-08-31T06:14:57;23.70;65.80
67817;DHT22;54614;47.576;7.524;2023-08-31T06:17:23;23.70;65.70
67817;DHT22;54614;47.576;7.524;2023-08-31T06:19:49;23.70;65.90
67817;DHT22;54614;47.576;7.524;2023-08-31T06:22:14;23.70;65.70
67817;DHT22;54614;47.576;7.524;2023-08-31T06:24:40;23.70;65.50
67817;DHT22;54614;47.576;7.524;2023-08-31T06:27:07;23.60;65.50
67817;DHT22;54614;47.576;7.524;2023-08-31T06:29:33;23.70;65.50
67817;DHT22;54614;47.576;7.524;2023-08-31T06:31:59;23.70;65.40
67817;DHT22;54614;47.576;7.524;2023-08-31T06:34:24;23.70;65.30
67817;DHT22;54614;47.576;7.524;2023-08-31T06:36:50;23.70;65.00
67817;DHT22;54614;47.576;7.524;2023-08-31T06:39:16;23.70;65.10
67817;DHT22;54614;47.576;7.524;2023-08-31T06:41:42;23.70;65.10
67817;DHT22;54614;47.576;7.524;2023-08-31T06:44:07;23.70;66.00
67817;DHT22;54614;47.576;7.524;2023-08-31T06:46:33;23.60;65.50
67817;DHT22;54614;47.576;7.524;2023-08-31T06:49:04;23.60;65.60
67817;DHT22;54614;47.576;7.524;2023-08-31T06:51:31;23.70;65.50
67817;DHT22;54614;47.576;7.524;2023-08-31T06:53:58;23.60;66.60
67817;DHT22;54614;47.576;7.524;2023-08-31T06:56:34;23.60;66.30
67817;DHT22;54614;47.576;7.524;2023-08-31T06:59:00;23.60;66.60
67817;DHT22;54614;47.576;7.524;2023-08-31T07:01:28;23.60;66.90
67817;DHT22;54614;47.576;7.524;2023-08-31T07:03:55;23.60;66.60
67817;DHT22;54614;47.576;7.524;2023-08-31T07:06:21;23.60;66.50
67817;DHT22;54614;47.576;7.524;2023-08-31T07:08:47;23.60;66.70
67817;DHT22;54614;47.576;7.524;2023-08-31T07:11:14;23.60;66.60
67817;DHT22;54614;47.576;7.524;2023-08-31T07:13:40;23.60;66.70
67817;DHT22;54614;47.576;7.524;2023-08-31T07:16:07;23.50;66.60
67817;DHT22;54614;47.576;7.524;2023-08-31T07:18:33;23.60;66.70
67817;DHT22;54614;47.576;7.524;2023-08-31T07:20:59;23.60;66.70
67817;DHT22;54614;47.576;7.524;2023-08-31T07:23:24;23.50;66.60
67817;DHT22;54614;47.576;7.524;2023-08-31T07:25:50;23.60;66.50
67817;DHT22;54614;47.576;7.524;2023-08-31T07:28:16;23.60;66.60
67817;DHT22;54614;47.576;7.524;2023-08-31T07:30:43;23.60;66.60
67817;DHT22;54614;47.576;7.524;2023-08-31T07:33:09;23.50;66.50
67817;DHT22;54614;47.576;7.524;2023-08-31T07:35:35;23.60;67.30
67817;DHT22;54614;47.576;7.524;2023-08-31T07:38:00;23.60;66.50
67817;DHT22;54614;47.576;7.524;2023-08-31T07:40:26;23.60;66.40
67817;DHT22;54614;47.576;7.524;2023-08-31T07:42:52;23.50;66.40
67817;DHT22;54614;47.576;7.524;2023-08-31T07:45:18;23.60;66.40
67817;DHT22;54614;47.576;7.524;2023-08-31T07:47:43;23.60;66.30
67817;DHT22;54614;47.576;7.524;2023-08-31T07:50:10;23.60;66.30
67817;DHT22;54614;47.576;7.524;2023-08-31T07:52:37;23.60;66.40
67817;DHT22;54614;47.576;7.524;2023-08-31T07:55:03;23.60;66.40
67817;DHT22;54614;47.576;7.524;2023-08-31T07:57:30;23.50;66.40
67817;DHT22;54614;47.576;7.524;2023-08-31T07:59:55;23.60;66.40
67817;DHT22;54614;47.576;7.524;2023-08-31T08:02:21;23.60;66.40
67817;DHT22;54614;47.576;7.524;2023-08-31T08:04:48;23.60;66.30
67817;DHT22;54614;47.576;7.524;2023-08-31T08:07:13;23.60;66.40
67817;DHT22;54614;47.576;7.524;2023-08-31T08:09:39;23.60;66.40
67817;DHT22;54614;47.576;7.524;2023-08-31T08:12:05;23.60;66.50
67817;DHT22;54614;47.576;7.524;2023-08-31T08:14:33;23.60;66.60
67817;DHT22;54614;47.576;7.524;2023-08-31T08:16:59;23.60;66.50
67817;DHT22;54614;47.576;7.524;2023-08-31T08:19:25;23.60;66.60
67817;DHT22;54614;47.576;7.524;2023-08-31T08:21:51;23.60;66.60
67817;DHT22;54614;47.576;7.524;2023-08-31T08:24:17;23.60;66.60
67817;DHT22;54614;47.576;7.524;2023-08-31T08:26:43;23.60;66.60
67817;DHT22;54614;47.576;7.524;2023-08-31T08:29:09;23.60;66.50
67817;DHT22;54614;47.576;7.524;2023-08-31T08:31:35;23.60;66.50
67817;DHT22;54614;47.576;7.524;2023-08-31T08:34:01;23.60;66.50
67817;DHT22;54614;47.576;7.524;2023-08-31T08:36:29;23.60;66.50
67817;DHT22;54614;47.576;7.524;2023-08-31T08:38:55;23.60;66.40
67817;DHT22;54614;47.576;7.524;2023-08-31T08:41:23;23.60;66.50
67817;DHT22;54614;47.576;7.524;2023-08-31T08:43:51;23.60;66.60
67817;DHT22;54614;47.576;7.524;2023-08-31T08:46:17;23.60;66.50
67817;DHT22;54614;47.576;7.524;2023-08-31T08:48:44;23.60;66.40
67817;DHT22;54614;47.576;7.524;2023-08-31T08:51:12;23.60;66.40
67817;DHT22;54614;47.576;7.524;2023-08-31T08:53:42;23.60;66.40
67817;DHT22;54614;47.576;7.524;2023-08-31T08:56:08;23.60;66.30
67817;DHT22;54614;47.576;7.524;2023-08-31T08:58:34;23.60;66.30
67817;DHT22;54614;47.576;7.524;2023-08-31T09:01:02;23.60;66.30
67817;DHT22;54614;47.576;7.524;2023-08-31T09:03:29;23.60;66.20
67817;DHT22;54614;47.576;7.524;2023-08-31T09:05:55;23.60;66.20
67817;DHT22;54614;47.576;7.524;2023-08-31T09:08:27;23.60;66.20
67817;DHT22;54614;47.576;7.524;2023-08-31T09:10:57;23.60;66.10
67817;DHT22;54614;47.576;7.524;2023-08-31T09:13:27;23.60;66.10
67817;DHT22;54614;47.576;7.524;2023-08-31T09:15:56;23.70;66.20
67817;DHT22;54614;47.576;7.524;2023-08-31T09:18:31;23.60;66.20
67817;DHT22;54614;47.576;7.524;2023-08-31T09:21:01;23.60;66.20
67817;DHT22;54614;47.576;7.524;2023-08-31T09:23:27;23.70;66.50
67817;DHT22;54614;47.576;7.524;2023-08-31T09:25:55;23.70;66.10
67817;DHT22;54614;47.576;7.524;2023-08-31T09:28:22;23.70;66.00
67817;DHT22;54614;47.576;7.524;2023-08-31T09:30:52;23.70;66.00
67817;DHT22;54614;47.576;7.524;2023-08-31T09:33:20;23.70;66.00
67817;DHT22;54614;47.576;7.524;2023-08-31T09:35:51;23.70;66.00
67817;DHT22;54614;47.576;7.524;2023-08-31T09:38:27;23.70;66.00
67817;DHT22;54614;47.576;7.524;2023-08-31T09:41:03;23.70;66.00
67817;DHT22;54614;47.576;7.524;2023-08-31T09:43:32;23.70;65.90
67817;DHT22;54614;47.576;7.524;2023-08-31T09:45:59;23.70;66.00
67817;DHT22;54614;47.576;7.524;2023-08-31T09:48:26;23.70;66.10
67817;DHT22;54614;47.576;7.524;2023-08-31T09:50:52;23.70;66.00
67817;DHT22;54614;47.576;7.524;2023-08-31T09:53:21;23.70;65.90
67817;DHT22;54614;47.576;7.524;2023-08-31T09:55:51;23.70;65.90
67817;DHT22;54614;47.576;7.524;2023-08-31T09:58:19;23.70;66.50
67817;DHT22;54614;47.576;7.524;2023-08-31T10:00:46;23.70;65.90
67817;DHT22;54614;47.576;7.524;2023-08-31T10:03:15;23.70;65.80
67817;DHT22;54614;47.576;7.524;2023-08-31T10:05:46;23.70;65.80
67817;DHT22;54614;47.576;7.524;2023-08-31T10:08:14;23.70;65.80
67817;DHT22;54614;47.576;7.524;2023-08-31T10:10:40;23.80;65.80
67817;DHT22;54614;47.576;7.524;2023-08-31T10:13:07;23.70;65.80
67817;DHT22;54614;47.576;7.524;2023-08-31T10:15:35;23.80;65.90
67817;DHT22;54614;47.576;7.524;2023-08-31T10:18:02;23.80;65.80
67817;DHT22;54614;47.576;7.524;2023-08-31T10:20:30;23.80;65.80
67817;DHT22;54614;47.576;7.524;2023-08-31T10:23:02;23.70;65.80
67817;DHT22;54614;47.576;7.524;2023-08-31T10:28:19;23.80;65.90
67817;DHT22;54614;47.576;7.524;2023-08-31T10:31:10;23.80;65.80
67817;DHT22;54614;47.576;7.524;2023-08-31T10:36:15;23.80;65.80
67817;DHT22;54614;47.576;7.524;2023-08-31T10:38:45;23.80;65.90
67817;DHT22;54614;47.576;7.524;2023-08-31T10:43:51;23.80;65.80
67817;DHT22;54614;47.576;7.524;2023-08-31T10:46:51;23.80;65.80
67817;DHT22;54614;47.576;7.524;2023-08-31T10:49:19;23.80;66.50
67817;DHT22;54614;47.576;7.524;2023-08-31T10:54:35;23.80;65.70
67817;DHT22;54614;47.576;7.524;2023-08-31T10:57:10;23.80;65.70
67817;DHT22;54614;47.576;7.524;2023-08-31T10:59:52;23.80;65.70
67817;DHT22;54614;47.576;7.524;2023-08-31T11:02:38;23.80;65.70
67817;DHT22;54614;47.576;7.524;2023-08-31T11:05:08;23.80;65.70
67817;DHT22;54614;47.576;7.524;2023-08-31T11:07:35;23.80;65.70
67817;DHT22;54614;47.576;7.524;2023-08-31T11:10:12;23.80;65.60
67817;DHT22;54614;47.576;7.524;2023-08-31T11:12:41;23.80;65.60
67817;DHT22;54614;47.576;7.524;2023-08-31T11:15:08;23.80;65.60
67817;DHT22;54614;47.576;7.524;2023-08-31T11:17:37;23.90;65.70
67817;DHT22;54614;47.576;7.524;2023-08-31T11:20:06;23.80;65.70
67817;DHT22;54614;47.576;7.524;2023-08-31T11:22:38;23.90;65.80
67817;DHT22;54614;47.576;7.524;2023-08-31T11:25:05;23.80;65.70
67817;DHT22;54614;47.576;7.524;2023-08-31T11:27:32;23.80;65.70
67817;DHT22;54614;47.576;7.524;2023-08-31T11:29:57;23.90;65.70
67817;DHT22;54614;47.576;7.524;2023-08-31T11:32:23;23.80;65.70
67817;DHT22;54614;47.576;7.524;2023-08-31T11:34:50;23.80;65.70
67817;DHT22;54614;47.576;7.524;2023-08-31T11:37:16;23.90;65.70
67817;DHT22;54614;47.576;7.524;2023-08-31T11:39:52;23.90;65.70
67817;DHT22;54614;47.576;7.524;2023-08-31T11:42:20;23.90;65.70
67817;DHT22;54614;47.576;7.524;2023-08-31T11:44:48;23.90;65.70
67817;DHT22;54614;47.576;7.524;2023-08-31T11:47:16;23.90;65.70
67817;DHT22;54614;47.576;7.524;2023-08-31T11:49:43;23.90;65.60
67817;DHT22;54614;47.576;7.524;2023-08-31T11:52:10;23.90;65.60
67817;DHT22;54614;47.576;7.524;2023-08-31T11:54:38;23.90;65.70
67817;DHT22;54614;47.576;7.524;2023-08-31T11:57:08;23.90;65.60
67817;DHT22;54614;47.576;7.524;2023-08-31T11:59:36;23.90;65.60
67817;DHT22;54614;47.576;7.524;2023-08-31T12:02:05;24.00;65.60
67817;DHT22;54614;47.576;7.524;2023-08-31T12:04:44;24.00;65.70
67817;DHT22;54614;47.576;7.524;2023-08-31T12:07:12;24.00;65.70
67817;DHT22;54614;47.576;7.524;2023-08-31T12:09:42;24.00;65.80
67817;DHT22;54614;47.576;7.524;2023-08-31T12:12:10;23.90;65.60
67817;DHT22;54614;47.576;7.524;2023-08-31T12:14:37;24.00;65.70
67817;DHT22;54614;47.576;7.524;2023-08-31T12:17:07;24.00;65.70
67817;DHT22;54614;47.576;7.524;2023-08-31T12:19:37;23.90;65.70
67817;DHT22;54614;47.576;7.524;2023-08-31T12:22:05;24.00;65.70
67817;DHT22;54614;47.576;7.524;2023-08-31T12:24:42;24.00;65.80
67817;DHT22;54614;47.576;7.524;2023-08-31T12:27:09;24.00;65.70
67817;DHT22;54614;47.576;7.524;2023-08-31T12:29:35;24.00;65.70
67817;DHT22;54614;47.576;7.524;2023-08-31T12:32:01;24.00;65.70
67817;DHT22;54614;47.576;7.524;2023-08-31T12:34:27;24.00;65.80
67817;DHT22;54614;47.576;7.524;2023-08-31T12:36:53;23.90;65.80
67817;DHT22;54614;47.576;7.524;2023-08-31T12:39:19;24.00;65.80
67817;DHT22;54614;47.576;7.524;2023-08-31T12:41:45;24.00;65.80
67817;DHT22;54614;47.576;7.524;2023-08-31T12:44:10;24.00;65.80
67817;DHT22;54614;47.576;7.524;2023-08-31T12:46:36;24.00;65.80
67817;DHT22;54614;47.576;7.524;2023-08-31T12:49:02;24.00;65.90
67817;DHT22;54614;47.576;7.524;2023-08-31T12:51:29;23.90;65.80
67817;DHT22;54614;47.576;7.524;2023-08-31T12:53:56;23.90;65.80
67817;DHT22;54614;47.576;7.524;2023-08-31T12:56:23;23.90;65.80
67817;DHT22;54614;47.576;7.524;2023-08-31T12:58:53;24.00;65.90
67817;DHT22;54614;47.576;7.524;2023-08-31T13:01:20;24.00;65.80
67817;DHT22;54614;47.576;7.524;2023-08-31T13:03:48;24.00;65.80
67817;DHT22;54614;47.576;7.524;2023-08-31T13:06:14;24.00;65.70
67817;DHT22;54614;47.576;7.524;2023-08-31T13:08:45;24.00;65.70
67817;DHT22;54614;47.576;7.524;2023-08-31T13:11:11;24.00;65.80
67817;DHT22;54614;47.576;7.524;2023-08-31T13:13:38;24.00;66.30
67817;DHT22;54614;47.576;7.524;2023-08-31T13:16:04;24.00;65.60
67817;DHT22;54614;47.576;7.524;2023-08-31T13:18:30;24.00;65.70
67817;DHT22;54614;47.576;7.524;2023-08-31T13:20:56;24.00;65.80
67817;DHT22;54614;47.576;7.524;2023-08-31T13:23:22;24.00;66.00
67817;DHT22;54614;47.576;7.524;2023-08-31T13:25:49;23.90;66.20
67817;DHT22;54614;47.576;7.524;2023-08-31T13:28:16;23.90;66.50
67817;DHT22;54614;47.576;7.524;2023-08-31T13:30:41;23.90;66.60
67817;DHT22;54614;47.576;7.524;2023-08-31T13:33:08;24.00;67.30
67817;DHT22;54614;47.576;7.524;2023-08-31T13:35:34;24.00;67.20
67817;DHT22;54614;47.576;7.524;2023-08-31T13:38:01;24.00;66.90
67817;DHT22;54614;47.576;7.524;2023-08-31T13:40:28;24.00;66.80
67817;DHT22;54614;47.576;7.524;2023-08-31T13:42:55;24.00;67.00
67817;DHT22;54614;47.576;7.524;2023-08-31T13:45:32;23.90;66.70
67817;DHT22;54614;47.576;7.524;2023-08-31T13:48:01;24.00;66.80
67817;DHT22;54614;47.576;7.524;2023-08-31T13:50:29;24.00;66.50
67817;DHT22;54614;47.576;7.524;2023-08-31T13:52:55;24.00;66.50
67817;DHT22;54614;47.576;7.524;2023-08-31T13:55:21;24.00;66.60
67817;DHT22;54614;47.576;7.524;2023-08-31T13:57:49;24.00;66.70
67817;DHT22;54614;47.576;7.524;2023-08-31T14:00:15;24.00;66.60
67817;DHT22;54614;47.576;7.524;2023-08-31T14:02:42;24.00;66.50
67817;DHT22;54614;47.576;7.524;2023-08-31T14:05:09;23.90;66.50
67817;DHT22;54614;47.576;7.524;2023-08-31T14:07:38;23.90;66.40
67817;DHT22;54614;47.576;7.524;2023-08-31T14:10:05;23.90;66.30
67817;DHT22;54614;47.576;7.524;2023-08-31T14:12:33;24.00;66.40
67817;DHT22;54614;47.576;7.524;2023-08-31T14:14:59;23.90;66.40
67817;DHT22;54614;47.576;7.524;2023-08-31T14:17:29;23.90;66.50
67817;DHT22;54614;47.576;7.524;2023-08-31T14:19:55;23.90;66.50
67817;DHT22;54614;47.576;7.524;2023-08-31T14:22:22;23.90;66.40
67817;DHT22;54614;47.576;7.524;2023-08-31T14:24:48;23.90;66.40
67817;DHT22;54614;47.576;7.524;2023-08-31T14:27:14;24.00;66.40
67817;DHT22;54614;47.576;7.524;2023-08-31T14:29:40;24.00;66.40
67817;DHT22;54614;47.576;7.524;2023-08-31T14:32:06;24.00;66.40
67817;DHT22;54614;47.576;7.524;2023-08-31T14:34:32;24.00;67.20
67817;DHT22;54614;47.576;7.524;2023-08-31T14:36:58;23.90;66.40
67817;DHT22;54614;47.576;7.524;2023-08-31T14:39:25;23.90;66.50
67817;DHT22;54614;47.576;7.524;2023-08-31T14:41:58;23.90;66.50
67817;DHT22;54614;47.576;7.524;2023-08-31T14:44:24;24.00;66.50
67817;DHT22;54614;47.576;7.524;2023-08-31T14:46:51;23.90;66.40
67817;DHT22;54614;47.576;7.524;2023-08-31T14:49:17;23.90;66.40
67817;DHT22;54614;47.576;7.524;2023-08-31T14:51:44;24.00;66.50
67817;DHT22;54614;47.576;7.524;2023-08-31T14:54:11;24.00;66.60
67817;DHT22;54614;47.576;7.524;2023-08-31T14:56:37;24.00;66.70
67817;DHT22;54614;47.576;7.524;2023-08-31T14:59:02;24.00;66.50
67817;DHT22;54614;47.576;7.524;2023-08-31T15:01:28;24.00;66.70
67817;DHT22;54614;47.576;7.524;2023-08-31T15:03:57;24.00;66.70
67817;DHT22;54614;47.576;7.524;2023-08-31T15:06:23;23.90;66.50
67817;DHT22;54614;47.576;7.524;2023-08-31T15:08:49;24.00;66.70
67817;DHT22;54614;47.576;7.524;2023-08-31T15:11:15;24.00;66.60
67817;DHT22;54614;47.576;7.524;2023-08-31T15:13:40;24.00;66.50
67817;DHT22;54614;47.576;7.524;2023-08-31T15:16:06;24.00;66.50
67817;DHT22;54614;47.576;7.524;2023-08-31T15:18:32;24.00;66.50
67817;DHT22;54614;47.576;7.524;2023-08-31T15:20:58;24.00;66.50
67817;DHT22;54614;47.576;7.524;2023-08-31T15:23:24;24.00;66.70
67817;DHT22;54614;47.576;7.524;2023-08-31T15:25:50;24.00;66.60
67817;DHT22;54614;47.576;7.524;2023-08-31T15:28:15;24.00;66.70
67817;DHT22;54614;47.576;7.524;2023-08-31T15:30:41;24.00;66.80
67817;DHT22;54614;47.576;7.524;2023-08-31T15:33:07;24.00;66.70
67817;DHT22;54614;47.576;7.524;2023-08-31T15:35:33;24.00;66.70
67817;DHT22;54614;47.576;7.524;2023-08-31T15:37:59;24.00;66.70
67817;DHT22;54614;47.576;7.524;2023-08-31T15:40:25;24.00;68.60
67817;DHT22;54614;47.576;7.524;2023-08-31T15:42:51;24.00;67.80
67817;DHT22;54614;47.576;7.524;2023-08-31T15:45:17;24.00;67.70
67817;DHT22;54614;47.576;7.524;2023-08-31T15:47:43;24.00;67.20
67817;DHT22;54614;47.576;7.524;2023-08-31T15:50:09;24.00;66.60